Time;durP1;ratioP1;P1;durP2;ratioP2;P2;SDS_P1;SDS_P2;PMS_P1;PMS_P2;Temp;Humidity;BMP_temperature;BMP_pressure;BME280_temperature;BME280_humidity;BME280_pressure;Samples;Min_cycle;Max_cycle;Signal;HPM_P1;HPM_P2
2023/11/17 00:00:31;;;;;;;3.57;2.30;;;;;;;3.25;91.26;99313.69;5119786;27;20363;-71
2023/11/17 00:02:57;;;;;;;4.37;1.93;;;;;;;3.19;91.69;99308.06;5103286;27;20046;-71
2023/11/17 00:05:22;;;;;;;5.23;2.67;;;;;;;3.16;91.83;99305.69;5102937;27;20102;-71
2023/11/17 00:07:48;;;;;;;3.17;2.10;;;;;;;3.15;92.00;99309.28;5120144;27;20039;-71
2023/11/17 00:10:14;;;;;;;3.23;2.07;;;;;;;3.08;91.38;99316.78;5102674;27;20522;-71
2023/11/17 00:12:41;;;;;;;2.83;2.00;;;;;;;3.08;91.05;99318.56;5154029;27;20381;-70
2023/11/17 00:15:07;;;;;;;3.03;2.00;;;;;;;3.02;89.71;99324.28;5136902;27;20187;-71
2023/11/17 00:17:33;;;;;;;3.27;2.23;;;;;;;2.93;89.98;99325.84;5136811;27;20363;-72
2023/11/17 00:19:59;;;;;;;2.67;1.90;;;;;;;2.86;89.13;99324.63;5119548;27;20137;-72
2023/11/17 00:22:26;;;;;;;1.83;1.50;;;;;;;2.85;89.42;99337.84;5136468;27;20556;-71
2023/11/17 00:24:54;;;;;;;3.83;2.30;;;;;;;2.78;89.42;99329.63;5100478;27;20058;-72
2023/11/17 00:27:20;;;;;;;2.13;1.63;;;;;;;2.83;90.01;99337.97;5134645;27;20470;-72
2023/11/17 00:29:48;;;;;;;5.03;2.10;;;;;;;2.81;89.99;99347.78;5117269;27;20049;-72
2023/11/17 00:32:14;;;;;;;3.97;1.90;;;;;;;2.79;90.07;99344.41;5117789;27;20482;-71
2023/11/17 00:34:40;;;;;;;2.93;2.13;;;;;;;2.78;90.55;99347.97;5100499;27;20042;-72
2023/11/17 00:37:09;;;;;;;2.87;1.90;;;;;;;2.79;90.47;99352.28;5100333;27;20039;-72
2023/11/17 00:39:37;;;;;;;5.63;1.90;;;;;;;2.90;91.23;99361.94;5119165;27;20071;-72
2023/11/17 00:42:03;;;;;;;2.83;2.20;;;;;;;2.89;90.63;99365.53;5119082;27;20061;-71
2023/11/17 00:44:30;;;;;;;5.10;2.07;;;;;;;2.96;90.66;99357.09;5102211;27;20053;-71
2023/11/17 00:46:56;;;;;;;5.33;2.30;;;;;;;2.90;90.16;99365.44;5102379;27;20493;-72
2023/11/17 00:49:22;;;;;;;4.40;2.20;;;;;;;2.88;89.91;99356.81;5119088;27;20070;-72
2023/11/17 00:51:49;;;;;;;2.80;2.20;;;;;;;2.92;90.23;99358.25;5102145;27;20039;-72
2023/11/17 00:54:15;;;;;;;2.00;1.80;;;;;;;2.91;89.65;99359.22;5102261;27;20038;-72
2023/11/17 00:56:41;;;;;;;3.00;1.73;;;;;;;2.90;89.04;99356.72;5136128;27;20070;-72
2023/11/17 00:59:11;;;;;;;4.17;2.10;;;;;;;2.92;88.74;99354.81;5119445;27;20126;-72
2023/11/17 01:01:39;;;;;;;2.45;1.92;;;;;;;2.96;88.42;99357.09;5136040;27;20047;-72
2023/11/17 01:04:05;;;;;;;3.07;2.10;;;;;;;-141.23;100.00;62281.09;5118912;27;20045;-72
2023/11/17 01:06:53;;;;;;;4.40;2.00;;;;;;;-141.23;100.00;62281.09;5118190;27;20047;-72
2023/11/17 01:09:20;;;;;;;4.13;2.30;;;;;;;-141.23;100.00;62281.09;5118672;27;20049;-72
2023/11/17 01:11:46;;;;;;;2.93;2.07;;;;;;;-141.23;100.00;62281.09;5118525;27;20050;-72
2023/11/17 01:14:12;;;;;;;3.57;2.00;;;;;;;-141.23;100.00;62281.09;5101718;27;20492;-72
2023/11/17 01:16:38;;;;;;;2.10;1.60;;;;;;;-141.23;100.00;62281.09;5101590;27;20080;-72
2023/11/17 01:19:04;;;;;;;3.77;1.70;;;;;;;-141.23;100.00;62281.09;5101558;27;20430;-72
2023/11/17 01:21:31;;;;;;;3.47;1.63;;;;;;;-141.23;100.00;62281.09;5135476;27;20055;-71
2023/11/17 01:24:00;;;;;;;2.97;2.10;;;;;;;-141.23;100.00;62281.09;5118359;27;20065;-72
2023/11/17 01:26:26;;;;;;;2.57;1.90;;;;;;;-141.23;100.00;62281.09;5101793;27;20049;-73
2023/11/17 01:28:51;;;;;;;4.47;2.03;;;;;;;-141.23;100.00;62281.09;5101303;27;20034;-73
2023/11/17 01:31:19;;;;;;;3.57;2.07;;;;;;;-141.23;100.00;62281.09;5118277;27;20106;-71
2023/11/17 01:33:48;;;;;;;7.37;1.90;;;;;;;-141.23;100.00;62281.09;5118789;27;20034;-71
2023/11/17 01:36:17;;;;;;;2.80;1.80;;;;;;;-141.23;100.00;62281.09;5118553;27;20474;-71
2023/11/17 01:38:44;;;;;;;2.33;1.93;;;;;;;-141.23;100.00;62281.09;5135253;27;20121;-71
2023/11/17 01:41:10;;;;;;;2.97;2.20;;;;;;;-141.23;100.00;62281.09;5135399;27;20095;-72
2023/11/17 01:43:36;;;;;;;2.50;1.97;;;;;;;-141.23;100.00;62281.09;5135125;27;20378;-73
2023/11/17 01:46:02;;;;;;;3.20;2.00;;;;;;;-141.23;100.00;62281.09;5101303;27;20493;-71
2023/11/17 01:48:28;;;;;;;1.97;1.77;;;;;;;-141.23;100.00;62281.09;5135317;27;20091;-71
2023/11/17 01:50:55;;;;;;;2.63;1.77;;;;;;;-141.23;100.00;62281.09;5117972;27;20458;-72
2023/11/17 01:53:22;;;;;;;3.23;1.90;;;;;;;-141.23;100.00;62281.09;5137164;27;20042;-72
2023/11/17 01:55:49;;;;;;;2.70;2.07;;;;;;;-141.23;100.00;62281.09;5122309;27;20452;-72
2023/11/17 01:58:15;;;;;;;4.57;2.10;;;;;;;-141.23;100.00;62281.09;5105577;27;20468;-72
2023/11/17 02:00:42;;;;;;;4.30;1.90;;;;;;;-141.23;100.00;62281.09;5122109;27;20042;-72
2023/11/17 02:03:07;;;;;;;2.00;1.80;;;;;;;-141.23;100.00;62281.09;5122136;27;20030;-72
2023/11/17 02:05:34;;;;;;;3.00;2.10;;;;;;;-141.23;100.00;62281.09;5105163;27;20429;-72
2023/11/17 02:08:04;;;;;;;2.97;1.80;;;;;;;-141.23;100.00;62281.09;5122565;27;20045;-72
2023/11/17 02:10:43;;;;;;;2.03;1.83;;;;;;;-141.23;100.00;62281.09;5156607;27;20439;-72
2023/11/17 02:13:36;;;;;;;2.93;2.07;;;;;;;-141.23;100.00;62281.09;5105106;27;20114;-72
2023/11/17 02:16:03;;;;;;;2.77;1.90;;;;;;;-141.23;100.00;62281.09;5139614;27;20070;-72
2023/11/17 02:18:31;;;;;;;3.30;2.17;;;;;;;-141.23;100.00;62281.09;5122227;27;20038;-72
2023/11/17 02:21:21;;;;;;;2.87;1.70;;;;;;;-141.23;100.00;62281.09;5127964;27;20466;-70
2023/11/17 02:23:47;;;;;;;2.50;2.10;;;;;;;-141.23;100.00;62281.09;5121709;27;20087;-70
2023/11/17 02:26:42;;;;;;;2.47;1.80;;;;;;;-141.23;100.00;62281.09;5121925;27;20548;-70
2023/11/17 02:29:39;;;;;;;4.13;2.20;;;;;;;-141.23;100.00;62281.09;5119566;27;20065;-73
2023/11/17 02:32:05;;;;;;;3.70;1.80;;;;;;;-141.23;100.00;62281.09;5106601;27;20442;-72
2023/11/17 02:34:32;;;;;;;2.50;1.77;;;;;;;-141.23;100.00;62281.09;5122165;27;20039;-72
2023/11/17 02:36:59;;;;;;;2.73;2.03;;;;;;;-141.23;100.00;62281.09;5121573;27;20138;-73
2023/11/17 02:39:25;;;;;;;5.93;2.20;;;;;;;-141.23;100.00;62281.09;5104829;27;20034;-72
2023/11/17 02:41:59;;;;;;;3.13;1.93;;;;;;;-141.23;100.00;62281.09;5121852;27;20070;-72
2023/11/17 02:44:33;;;;;;;2.93;1.90;;;;;;;-141.23;100.00;62281.09;5155784;27;20046;-72
2023/11/17 02:47:03;;;;;;;2.67;1.80;;;;;;;-141.23;100.00;62281.09;5122836;27;20493;-73
2023/11/17 02:49:42;;;;;;;4.77;2.10;;;;;;;-141.23;100.00;62281.09;5105124;27;20038;-72
2023/11/17 02:52:15;;;;;;;2.53;1.73;;;;;;;-141.23;100.00;62281.09;5140616;27;20034;-72
2023/11/17 02:54:40;;;;;;;2.73;1.87;;;;;;;-141.23;100.00;62281.09;5139253;27;20042;-72
2023/11/17 02:57:07;;;;;;;2.27;1.50;;;;;;;-141.23;100.00;62281.09;5104383;27;20053;-71
2023/11/17 02:59:37;;;;;;;2.17;1.50;;;;;;;-141.23;100.00;62281.09;5121704;27;20035;-70
2023/11/17 03:02:04;;;;;;;3.97;1.80;;;;;;;-141.23;100.00;62281.09;5139523;27;20069;-76
2023/11/17 03:04:30;;;;;;;3.23;1.80;;;;;;;-141.23;100.00;62281.09;5104973;27;20624;-73
2023/11/17 03:06:57;;;;;;;3.70;1.93;;;;;;;-141.23;100.00;62281.09;5121491;27;20039;-70
2023/11/17 03:09:23;;;;;;;1.73;1.47;;;;;;;-141.23;100.00;62281.09;5138102;27;20041;-70
2023/11/17 03:11:50;;;;;;;1.97;1.60;;;;;;;-141.23;100.00;62281.09;5120935;27;20129;-70
2023/11/17 03:14:16;;;;;;;2.83;1.77;;;;;;;-141.23;100.00;62281.09;5120728;27;20101;-71
2023/11/17 03:16:42;;;;;;;7.67;1.80;;;;;;;-141.23;100.00;62281.09;5120523;27;20109;-74
2023/11/17 03:19:11;;;;;;;2.27;1.87;;;;;;;-141.23;100.00;62281.09;5120612;27;20205;-71
2023/11/17 03:21:44;;;;;;;2.47;1.90;;;;;;;-141.23;100.00;62281.09;5121572;27;20424;-71
2023/11/17 03:24:20;;;;;;;3.60;2.10;;;;;;;-141.23;100.00;62281.09;5138175;27;20054;-71
2023/11/17 03:26:50;;;;;;;2.83;1.80;;;;;;;-141.23;100.00;62281.09;5121820;27;20400;-74
2023/11/17 03:29:17;;;;;;;3.07;1.90;;;;;;;-141.23;100.00;62281.09;5125175;27;20034;-72
2023/11/17 03:31:48;;;;;;;2.47;1.63;;;;;;;-141.23;100.00;62281.09;5139207;27;20474;-75
2023/11/17 03:34:18;;;;;;;3.67;1.87;;;;;;;-141.23;100.00;62281.09;5123530;27;20450;-75
2023/11/17 03:36:47;;;;;;;3.93;2.10;;;;;;;-141.23;100.00;62281.09;5072728;27;20073;-76
2023/11/17 03:39:14;;;;;;;3.93;2.10;;;;;;;-141.23;100.00;62281.09;5111716;28;20158;-74
2023/11/17 03:41:41;;;;;;;3.73;2.07;;;;;;;-141.23;100.00;62281.09;5063040;28;20051;-75
2023/11/17 03:44:07;;;;;;;4.77;2.10;;;;;;;-141.23;100.00;62281.09;5062545;28;20189;-73
2023/11/17 03:46:35;;;;;;;3.23;2.00;;;;;;;-141.23;100.00;62281.09;5059920;28;20138;-73
2023/11/17 03:49:01;;;;;;;2.83;1.40;;;;;;;-141.23;100.00;62281.09;5059226;28;20056;-73
2023/11/17 03:51:27;;;;;;;4.80;1.50;;;;;;;-141.23;100.00;62281.09;5058993;28;20475;-73
2023/11/17 03:53:52;;;;;;;4.90;1.73;;;;;;;-141.23;100.00;62281.09;5073635;28;20035;-73
2023/11/17 03:56:20;;;;;;;5.67;1.60;;;;;;;-141.23;100.00;62281.09;5091324;28;20060;-73
2023/11/17 03:58:47;;;;;;;3.07;1.40;;;;;;;-141.23;100.00;62281.09;5075549;28;20506;-74
2023/11/17 04:01:12;;;;;;;2.77;1.50;;;;;;;-141.23;100.00;62281.09;5073462;28;20108;-74
2023/11/17 04:03:38;;;;;;;5.57;1.70;;;;;;;-141.23;100.00;62281.09;5038241;28;20566;-73
2023/11/17 04:06:06;;;;;;;2.47;1.90;;;;;;;-141.23;100.00;62281.09;5022228;28;20048;-73
2023/11/17 04:08:32;;;;;;;2.90;1.90;;;;;;;-141.23;100.00;62281.09;5029897;28;20119;-72
2023/11/17 04:10:59;;;;;;;2.93;1.90;;;;;;;-141.23;100.00;62281.09;5070472;27;20043;-73
2023/11/17 04:13:25;;;;;;;2.93;2.03;;;;;;;-141.23;100.00;62281.09;5062003;27;20043;-75
2023/11/17 04:15:51;;;;;;;3.10;2.03;;;;;;;-141.23;100.00;62281.09;5077285;27;20561;-73
2023/11/17 04:18:16;;;;;;;3.60;2.13;;;;;;;-141.23;100.00;62281.09;5080996;27;20143;-74
2023/11/17 04:20:43;;;;;;;5.03;2.07;;;;;;;-141.23;100.00;62281.09;5064403;27;20074;-72
2023/11/17 04:23:09;;;;;;;4.90;2.40;;;;;;;-141.23;100.00;62281.09;5074723;27;20047;-73
2023/11/17 04:25:35;;;;;;;6.10;2.97;;;;;;;-141.23;100.00;62281.09;5060805;28;20047;-73
2023/11/17 04:28:02;;;;;;;8.77;3.60;;;;;;;-141.23;100.00;62281.09;5049510;27;20426;-75
2023/11/17 04:30:28;;;;;;;6.17;3.60;;;;;;;-141.23;100.00;62281.09;5079964;27;20067;-75
2023/11/17 04:32:54;;;;;;;6.97;3.63;;;;;;;-141.23;100.00;62281.09;5097028;27;20415;-72
2023/11/17 04:35:19;;;;;;;6.60;3.37;;;;;;;-141.23;100.00;62281.09;5102792;27;20058;-75
2023/11/17 04:37:46;;;;;;;7.87;3.27;;;;;;;-141.23;100.00;62281.09;5098956;27;20054;-78
2023/11/17 04:40:13;;;;;;;6.17;3.00;;;;;;;-141.23;100.00;62281.09;5110288;28;20058;-73
2023/11/17 04:42:39;;;;;;;7.73;3.10;;;;;;;-141.23;100.00;62281.09;5076335;28;20455;-74
2023/11/17 04:45:11;;;;;;;5.67;2.77;;;;;;;-141.23;100.00;62281.09;5052131;28;20159;-73
2023/11/17 04:47:37;;;;;;;3.80;2.67;;;;;;;-141.23;100.00;62281.09;5109060;28;20043;-76
2023/11/17 04:50:04;;;;;;;4.80;2.80;;;;;;;-141.23;100.00;62281.09;5057366;28;20051;-75
2023/11/17 04:52:30;;;;;;;5.57;3.03;;;;;;;-141.23;100.00;62281.09;5074715;28;20146;-74
2023/11/17 04:55:02;;;;;;;5.07;3.10;;;;;;;-141.23;100.00;62281.09;5060005;28;20040;-76
2023/11/17 04:57:29;;;;;;;8.13;3.40;;;;;;;-141.23;100.00;62281.09;5092344;28;20043;-77
2023/11/17 04:59:54;;;;;;;6.23;3.07;;;;;;;-141.23;100.00;62281.09;5060434;28;20043;-76
2023/11/17 05:02:20;;;;;;;5.67;2.80;;;;;;;-141.23;100.00;62281.09;5077121;28;20062;-75
2023/11/17 05:04:46;;;;;;;4.50;2.70;;;;;;;-141.23;100.00;62281.09;5060453;28;20074;-75
2023/11/17 05:07:12;;;;;;;2.90;2.27;;;;;;;-141.23;100.00;62281.09;5060574;28;20130;-75
2023/11/17 05:09:38;;;;;;;4.43;2.50;;;;;;;-141.23;100.00;62281.09;5077212;28;20122;-74
2023/11/17 05:12:03;;;;;;;4.17;2.60;;;;;;;-141.23;100.00;62281.09;5125480;27;20057;-74
2023/11/17 05:14:29;;;;;;;3.83;2.70;;;;;;;-141.23;100.00;62281.09;5117154;27;20132;-75
2023/11/17 05:17:06;;;;;;;4.97;2.60;;;;;;;-141.23;100.00;62281.09;5134405;27;20066;-75
2023/11/17 05:19:32;;;;;;;4.10;2.50;;;;;;;-141.23;100.00;62281.09;5136797;27;20038;-74
2023/11/17 05:21:57;;;;;;;5.27;3.23;;;;;;;-141.23;100.00;62281.09;5118124;27;20053;-74
2023/11/17 05:24:23;;;;;;;4.23;2.77;;;;;;;-141.23;100.00;62281.09;5101452;27;20088;-75
2023/11/17 05:26:49;;;;;;;4.33;3.03;;;;;;;-141.23;100.00;62281.09;5101201;27;20035;-74
2023/11/17 05:29:15;;;;;;;3.47;2.53;;;;;;;-141.23;100.00;62281.09;5101178;27;20066;-74
2023/11/17 05:31:42;;;;;;;6.37;3.37;;;;;;;-141.23;100.00;62281.09;5101926;27;20121;-74
2023/11/17 05:34:09;;;;;;;5.23;2.70;;;;;;;-141.23;100.00;62281.09;5101832;27;20038;-75
2023/11/17 05:36:39;;;;;;;4.40;2.63;;;;;;;-141.23;100.00;62281.09;5118721;27;20050;-75
2023/11/17 05:39:06;;;;;;;4.13;2.70;;;;;;;-141.23;100.00;62281.09;5136380;27;20489;-75
2023/11/17 05:41:32;;;;;;;3.67;2.60;;;;;;;-141.23;100.00;62281.09;5118490;27;20485;-75
2023/11/17 05:43:57;;;;;;;4.93;2.47;;;;;;;-141.23;100.00;62281.09;5101278;27;20417;-75
2023/11/17 05:46:24;;;;;;;3.97;2.20;;;;;;;-141.23;100.00;62281.09;5101235;27;20038;-75
2023/11/17 05:48:50;;;;;;;4.77;2.20;;;;;;;-141.23;100.00;62281.09;5118199;27;20034;-74
2023/11/17 05:51:16;;;;;;;4.43;2.43;;;;;;;-141.23;100.00;62281.09;5101276;27;20065;-74
2023/11/17 05:53:43;;;;;;;5.87;2.03;;;;;;;-141.23;100.00;62281.09;5118791;27;20034;-74
2023/11/17 05:56:11;;;;;;;2.57;1.97;;;;;;;-141.23;100.00;62281.09;5118674;27;20501;-75
2023/11/17 05:58:37;;;;;;;2.20;1.87;;;;;;;-141.23;100.00;62281.09;5118288;27;20046;-75
2023/11/17 06:01:03;;;;;;;2.53;2.10;;;;;;;-141.23;100.00;62281.09;5118208;27;20043;-74
2023/11/17 06:03:29;;;;;;;3.40;2.10;;;;;;;-141.23;100.00;62281.09;5117987;27;20486;-75
2023/11/17 06:05:55;;;;;;;3.00;2.00;;;;;;;-141.23;100.00;62281.09;5100742;27;20050;-74
2023/11/17 06:08:22;;;;;;;3.30;1.93;;;;;;;-141.23;100.00;62281.09;5110109;28;20065;-74
2023/11/17 06:10:48;;;;;;;3.17;2.07;;;;;;;-141.23;100.00;62281.09;5109863;28;20479;-74
2023/11/17 06:13:15;;;;;;;3.20;1.90;;;;;;;-141.23;100.00;62281.09;5109995;28;20048;-75
2023/11/17 06:15:41;;;;;;;4.57;2.20;;;;;;;-141.23;100.00;62281.09;5109839;28;20044;-74
2023/11/17 06:18:07;;;;;;;2.53;1.87;;;;;;;-141.23;100.00;62281.09;5109723;28;20047;-75
2023/11/17 06:20:36;;;;;;;3.07;2.10;;;;;;;-141.23;100.00;62281.09;5076396;28;20040;-74
2023/11/17 06:23:02;;;;;;;4.40;2.33;;;;;;;-141.23;100.00;62281.09;5109538;28;20120;-75
2023/11/17 06:25:28;;;;;;;4.10;2.20;;;;;;;-141.23;100.00;62281.09;5109923;28;20483;-75
2023/11/17 06:27:53;;;;;;;7.07;2.87;;;;;;;-141.23;100.00;62281.09;5109888;28;20231;-74
2023/11/17 06:30:20;;;;;;;6.33;3.20;;;;;;;-141.23;100.00;62281.09;5110084;28;20043;-74
2023/11/17 06:32:46;;;;;;;4.30;2.27;;;;;;;-141.23;100.00;62281.09;5092771;28;20042;-73
2023/11/17 06:35:13;;;;;;;3.37;2.20;;;;;;;-141.23;100.00;62281.09;5109905;28;20050;-74
2023/11/17 06:37:39;;;;;;;9.93;3.53;;;;;;;-141.23;100.00;62281.09;5109530;28;20051;-74
2023/11/17 06:40:09;;;;;;;7.33;3.40;;;;;;;-141.23;100.00;62281.09;5137603;27;20390;-74
2023/11/17 06:42:36;;;;;;;12.32;4.32;;;;;;;-141.23;100.00;62281.09;5105224;27;20430;-74
2023/11/17 06:45:02;;;;;;;10.60;3.30;;;;;;;-141.23;100.00;62281.09;5138632;27;20055;-74
2023/11/17 06:47:32;;;;;;;6.47;2.83;;;;;;;-141.23;100.00;62281.09;5122438;27;20031;-74
2023/11/17 06:49:58;;;;;;;3.30;2.10;;;;;;;-141.23;100.00;62281.09;5138677;27;20035;-74
2023/11/17 06:52:24;;;;;;;4.53;2.53;;;;;;;-141.23;100.00;62281.09;5104531;27;20122;-74
2023/11/17 06:54:50;;;;;;;5.30;2.60;;;;;;;-141.23;100.00;62281.09;5103968;27;20503;-73
2023/11/17 06:57:16;;;;;;;3.50;2.43;;;;;;;-141.23;100.00;62281.09;5122247;27;20046;-74
2023/11/17 06:59:42;;;;;;;3.37;2.53;;;;;;;-141.23;100.00;62281.09;5104826;27;20041;-74
2023/11/17 07:02:09;;;;;;;6.35;3.13;;;;;;;-141.23;100.00;62281.09;5138259;27;20456;-75
2023/11/17 07:04:35;;;;;;;3.80;2.60;;;;;;;-141.23;100.00;62281.09;5121184;27;20390;-74
2023/11/17 07:07:01;;;;;;;3.45;2.10;;;;;;;-141.23;100.00;62281.09;5104213;27;20053;-74
2023/11/17 07:09:32;;;;;;;3.53;2.03;;;;;;;-141.23;100.00;62281.09;5104278;27;20049;-74
2023/11/17 07:11:59;;;;;;;2.58;2.15;;;;;;;-141.23;100.00;62281.09;5121992;27;20046;-75
2023/11/17 07:14:26;;;;;;;3.38;2.10;;;;;;;-141.23;100.00;62281.09;5138715;27;20078;-74
2023/11/17 07:16:55;;;;;;;3.38;1.98;;;;;;;-141.23;100.00;62281.09;5103938;27;20142;-74
2023/11/17 07:19:20;;;;;;;5.43;2.20;;;;;;;-141.23;100.00;62281.09;5120768;27;20038;-74
2023/11/17 07:21:48;;;;;;;4.18;2.15;;;;;;;-141.23;100.00;62281.09;5104262;27;20041;-74
2023/11/17 07:24:15;;;;;;;4.53;3.00;;;;;;;-141.23;100.00;62281.09;5104220;27;20501;-74
2023/11/17 07:26:41;;;;;;;3.95;2.90;;;;;;;-141.23;100.00;62281.09;5104049;27;20493;-74
2023/11/17 07:29:07;;;;;;;5.85;2.60;;;;;;;-141.23;100.00;62281.09;5120952;27;20538;-74
2023/11/17 07:31:39;;;;;;;4.28;2.65;;;;;;;-141.23;100.00;62281.09;5120913;27;20049;-75
2023/11/17 07:34:07;;;;;;;4.03;2.40;;;;;;;-141.23;100.00;62281.09;5088815;27;20051;-75
2023/11/17 07:36:37;;;;;;;3.22;2.40;;;;;;;-141.23;100.00;62281.09;5103471;27;20103;-75
2023/11/17 07:39:04;;;;;;;4.75;2.47;;;;;;;-141.23;100.00;62281.09;5120666;27;20043;-75
2023/11/17 07:41:31;;;;;;;6.00;2.30;;;;;;;-141.23;100.00;62281.09;5120606;27;20039;-74
2023/11/17 07:43:57;;;;;;;3.00;2.00;;;;;;;-141.23;100.00;62281.09;5081361;27;20050;-74
2023/11/17 07:46:27;;;;;;;3.75;2.22;;;;;;;-141.23;100.00;62281.09;5065704;27;20402;-74
2023/11/17 07:48:57;;;;;;;5.15;2.30;;;;;;;-141.23;100.00;62281.09;5066514;27;20395;-74
2023/11/17 07:51:23;;;;;;;4.32;2.10;;;;;;;-141.23;100.00;62281.09;5081328;27;20047;-74
2023/11/17 07:53:49;;;;;;;5.07;2.50;;;;;;;-141.23;100.00;62281.09;5082593;27;20069;-74
2023/11/17 07:56:15;;;;;;;7.05;2.83;;;;;;;-141.23;100.00;62281.09;5082526;27;20047;-74
2023/11/17 07:58:44;;;;;;;3.77;2.60;;;;;;;-141.23;100.00;62281.09;5065422;27;20043;-74
2023/11/17 08:01:09;;;;;;;6.13;2.83;;;;;;;-141.23;100.00;62281.09;5099228;27;20043;-74
2023/11/17 08:03:36;;;;;;;3.93;2.80;;;;;;;-141.23;100.00;62281.09;5081815;27;20074;-74
2023/11/17 08:06:03;;;;;;;6.03;2.70;;;;;;;-141.23;100.00;62281.09;5098763;27;20451;-74
2023/11/17 08:08:32;;;;;;;4.00;2.42;;;;;;;-141.23;100.00;62281.09;5081944;27;20043;-75
2023/11/17 08:10:59;;;;;;;5.35;2.50;;;;;;;-141.23;100.00;62281.09;5081846;27;20069;-74
2023/11/17 08:13:25;;;;;;;3.10;1.92;;;;;;;-141.23;100.00;62281.09;5081868;27;20046;-74
2023/11/17 08:15:51;;;;;;;5.00;2.03;;;;;;;-141.23;100.00;62281.09;5115579;27;20057;-74
2023/11/17 08:18:18;;;;;;;2.05;1.85;;;;;;;-141.23;100.00;62281.09;5103237;27;20047;-74
2023/11/17 08:20:47;;;;;;;3.90;2.25;;;;;;;-141.23;100.00;62281.09;5103040;27;20053;-74
2023/11/17 08:23:14;;;;;;;2.38;1.83;;;;;;;-141.23;100.00;62281.09;5119895;27;20076;-74
2023/11/17 08:25:40;;;;;;;3.20;1.60;;;;;;;-141.23;100.00;62281.09;5103009;27;20035;-74
2023/11/17 08:28:09;;;;;;;4.43;1.88;;;;;;;-141.23;100.00;62281.09;5119721;27;20035;-75
2023/11/17 08:30:37;;;;;;;3.10;1.80;;;;;;;-141.23;100.00;62281.09;5103009;27;20478;-74
2023/11/17 08:33:04;;;;;;;3.05;1.98;;;;;;;-141.23;100.00;62281.09;5119950;27;20594;-74
2023/11/17 08:35:30;;;;;;;2.75;1.60;;;;;;;-141.23;100.00;62281.09;5119635;27;20197;-75
2023/11/17 08:37:56;;;;;;;5.32;1.92;;;;;;;-141.23;100.00;62281.09;5119636;27;20055;-74
2023/11/17 08:40:22;;;;;;;7.15;2.28;;;;;;;-141.23;100.00;62281.09;5102723;27;20039;-75
2023/11/17 08:42:49;;;;;;;3.95;2.25;;;;;;;-141.23;100.00;62281.09;5102749;27;20488;-74
2023/11/17 08:45:15;;;;;;;2.45;1.85;;;;;;;-141.23;100.00;62281.09;5119534;27;20058;-75
2023/11/17 08:47:43;;;;;;;2.70;2.00;;;;;;;-141.23;100.00;62281.09;5102434;27;20046;-75
2023/11/17 08:50:10;;;;;;;3.45;2.10;;;;;;;-141.23;100.00;62281.09;5119131;27;20390;-76
2023/11/17 08:52:39;;;;;;;3.95;2.03;;;;;;;-141.23;100.00;62281.09;5119190;27;20564;-75
2023/11/17 08:55:05;;;;;;;3.80;2.00;;;;;;;-141.23;100.00;62281.09;5119506;27;20438;-75
2023/11/17 08:57:35;;;;;;;3.85;2.20;;;;;;;-141.23;100.00;62281.09;5119176;27;20046;-75
2023/11/17 09:00:11;;;;;;;4.33;2.30;;;;;;;-141.23;100.00;62281.09;5119043;27;20122;-75
2023/11/17 09:02:41;;;;;;;5.22;2.30;;;;;;;-141.23;100.00;62281.09;5104606;27;20351;-76
2023/11/17 09:05:11;;;;;;;2.35;1.60;;;;;;;-141.23;100.00;62281.09;5119140;27;20138;-76
2023/11/17 09:07:41;;;;;;;3.40;1.57;;;;;;;-141.23;100.00;62281.09;5153833;27;20038;-76
2023/11/17 09:10:11;;;;;;;2.13;1.35;;;;;;;-141.23;100.00;62281.09;5119053;27;20704;-76
2023/11/17 09:12:42;;;;;;;1.95;1.30;;;;;;;-141.23;100.00;62281.09;5119024;27;20509;-76
2023/11/17 09:15:13;;;;;;;1.98;1.63;;;;;;;-141.23;100.00;62281.09;5119401;27;20505;-76
2023/11/17 09:17:42;;;;;;;4.30;1.45;;;;;;;-141.23;100.00;62281.09;5118784;27;20074;-75
2023/11/17 09:20:09;;;;;;;2.42;1.95;;;;;;;-141.23;100.00;62281.09;5136827;27;20118;-75
2023/11/17 09:22:36;;;;;;;3.17;1.63;;;;;;;-141.23;100.00;62281.09;5152811;27;20469;-75
2023/11/17 09:25:03;;;;;;;2.08;1.50;;;;;;;-141.23;100.00;62281.09;5118747;27;20051;-75
2023/11/17 09:27:30;;;;;;;2.90;1.65;;;;;;;-141.23;100.00;62281.09;5102238;27;20042;-75
2023/11/17 09:29:55;;;;;;;3.40;2.38;;;;;;;-141.23;100.00;62281.09;5118601;27;20133;-75
2023/11/17 09:32:21;;;;;;;3.13;2.10;;;;;;;-141.23;100.00;62281.09;5118898;27;20038;-75
2023/11/17 09:34:49;;;;;;;2.58;1.85;;;;;;;-141.23;100.00;62281.09;5101507;27;20042;-75
2023/11/17 09:37:16;;;;;;;5.95;2.13;;;;;;;-141.23;100.00;62281.09;5118634;27;20063;-75
2023/11/17 09:39:42;;;;;;;3.15;1.95;;;;;;;-141.23;100.00;62281.09;5152832;27;20102;-75
2023/11/17 09:42:08;;;;;;;4.82;2.00;;;;;;;-141.23;100.00;62281.09;5118506;27;20043;-76
2023/11/17 09:44:35;;;;;;;2.85;1.98;;;;;;;-141.23;100.00;62281.09;5135524;27;20050;-75
2023/11/17 09:47:28;;;;;;;3.60;1.90;;;;;;;-141.23;100.00;62281.09;5118284;27;20610;-75
2023/11/17 09:49:55;;;;;;;4.93;2.40;;;;;;;-141.23;100.00;62281.09;5115328;27;20047;-75
2023/11/17 09:52:22;;;;;;;3.78;2.30;;;;;;;-141.23;100.00;62281.09;5118301;27;20523;-73
2023/11/17 09:54:48;;;;;;;2.80;1.95;;;;;;;-141.23;100.00;62281.09;5118562;27;20034;-76
2023/11/17 09:57:18;;;;;;;2.78;1.70;;;;;;;-141.23;100.00;62281.09;5119197;27;20031;-75
2023/11/17 09:59:47;;;;;;;2.92;1.63;;;;;;;-141.23;100.00;62281.09;5081552;28;20054;-75
2023/11/17 10:02:15;;;;;;;3.72;1.98;;;;;;;-141.23;100.00;62281.09;5075689;28;20055;-73
2023/11/17 10:04:41;;;;;;;3.25;2.08;;;;;;;-141.23;100.00;62281.09;5060117;28;20498;-76
2023/11/17 10:07:09;;;;;;;4.30;2.17;;;;;;;-141.23;100.00;62281.09;5043175;28;20043;-76
2023/11/17 10:09:36;;;;;;;4.78;2.70;;;;;;;-141.23;100.00;62281.09;5043004;28;20074;-75
2023/11/17 10:12:05;;;;;;;3.95;2.30;;;;;;;-141.23;100.00;62281.09;5093264;28;20047;-76
2023/11/17 10:14:34;;;;;;;5.93;2.72;;;;;;;-141.23;100.00;62281.09;5045146;28;20055;-76
2023/11/17 10:17:05;;;;;;;4.85;2.80;;;;;;;-141.23;100.00;62281.09;5097300;28;20407;-76
2023/11/17 10:19:31;;;;;;;6.00;2.30;;;;;;;-141.23;100.00;62281.09;5080524;28;20502;-75
2023/11/17 10:21:56;;;;;;;2.60;2.35;;;;;;;-141.23;100.00;62281.09;5047129;28;20168;-76
2023/11/17 10:24:24;;;;;;;3.23;2.37;;;;;;;-141.23;100.00;62281.09;5063126;28;20082;-75
2023/11/17 10:26:50;;;;;;;2.43;2.10;;;;;;;-141.23;100.00;62281.09;5063593;28;20563;-74
2023/11/17 10:29:16;;;;;;;3.43;2.13;;;;;;;-141.23;100.00;62281.09;5080086;28;20043;-75
2023/11/17 10:31:46;;;;;;;3.87;2.40;;;;;;;-141.23;100.00;62281.09;5097960;27;20385;-74
2023/11/17 10:34:14;;;;;;;6.40;2.30;;;;;;;-141.23;100.00;62281.09;5118805;27;20148;-75
2023/11/17 10:37:04;;;;;;;6.07;2.87;;;;;;;-141.23;100.00;62281.09;5101388;27;20054;-75
2023/11/17 10:39:31;;;;;;;3.75;2.17;;;;;;;-141.23;100.00;62281.09;5119132;27;20050;-75
2023/11/17 10:42:16;;;;;;;3.93;3.00;;;;;;;-141.23;100.00;62281.09;5101878;27;20138;-73
2023/11/17 10:44:42;;;;;;;4.23;2.53;;;;;;;-141.23;100.00;62281.09;5095336;28;20506;-74
2023/11/17 10:47:09;;;;;;;4.20;2.50;;;;;;;-141.23;100.00;62281.09;5061597;28;20044;-74
2023/11/17 10:49:35;;;;;;;2.90;2.27;;;;;;;-141.23;100.00;62281.09;5062450;28;20071;-74
2023/11/17 10:52:05;;;;;;;4.47;2.60;;;;;;;-141.23;100.00;62281.09;5061301;28;20043;-74
2023/11/17 10:54:33;;;;;;;4.32;2.88;;;;;;;-141.23;100.00;62281.09;5062673;28;20043;-74
2023/11/17 10:57:12;;;;;;;5.30;2.30;;;;;;;-141.23;100.00;62281.09;5063078;28;20059;-74
2023/11/17 10:59:39;;;;;;;2.93;2.00;;;;;;;-141.23;100.00;62281.09;5079924;28;20046;-74
2023/11/17 11:02:08;;;;;;;3.93;2.00;;;;;;;-141.23;100.00;62281.09;5062776;28;20400;-74
2023/11/17 11:04:34;;;;;;;5.17;1.77;;;;;;;-141.23;100.00;62281.09;5096232;28;20055;-74
2023/11/17 11:07:01;;;;;;;4.17;2.30;;;;;;;-141.23;100.00;62281.09;5063110;28;20043;-74
2023/11/17 11:09:32;;;;;;;4.03;2.50;;;;;;;-141.23;100.00;62281.09;5063102;28;20054;-74
2023/11/17 11:11:58;;;;;;;;;;;;;;;-141.23;100.00;62281.09;5063323;28;20046;-74
2023/11/17 11:14:27;;;;;;;3.63;2.10;;;;;;;-141.23;100.00;62281.09;5062877;28;20273;-74